createdAt,value
2022-10-18T00:00:55.806Z,5.18
2022-10-18T00:03:24.407Z,5.67
2022-10-18T00:05:52.780Z,5.13
2022-10-18T00:08:22.189Z,4.68
2022-10-18T00:10:50.752Z,5.45
2022-10-18T00:13:20.944Z,5.40
2022-10-18T00:15:52.209Z,5.13
2022-10-18T00:18:20.578Z,5.00
2022-10-18T00:20:58.428Z,4.95
2022-10-18T00:23:28.839Z,5.35
2022-10-18T00:26:01.545Z,5.82
2022-10-18T00:28:29.265Z,5.45
2022-10-18T00:30:56.935Z,4.72
2022-10-18T00:33:24.747Z,4.80
2022-10-18T00:35:52.492Z,3.42
2022-10-18T00:38:20.170Z,3.65
2022-10-18T00:40:49.217Z,3.80
2022-10-18T00:43:19.170Z,4.50
2022-10-18T00:45:49.152Z,3.78
2022-10-18T00:48:19.554Z,4.53
2022-10-18T00:50:49.042Z,4.57
2022-10-18T00:53:20.789Z,3.67
2022-10-18T00:55:50.178Z,5.63
2022-10-18T00:58:20.040Z,4.28
2022-10-18T01:00:48.084Z,4.35
2022-10-18T01:03:15.891Z,4.53
2022-10-18T01:05:48.799Z,5.32
2022-10-18T01:08:46.004Z,4.13
2022-10-18T01:11:44.956Z,3.55
2022-10-18T01:14:36.124Z,4.77
2022-10-18T01:17:15.125Z,3.22
2022-10-18T01:20:15.480Z,5.30
2022-10-18T01:22:46.376Z,4.32
2022-10-18T01:25:27.040Z,3.20
2022-10-18T01:28:02.676Z,4.43
2022-10-18T01:30:47.364Z,3.88
2022-10-18T01:33:23.931Z,3.65
2022-10-18T01:35:57.720Z,3.28
2022-10-18T01:38:27.008Z,3.75
2022-10-18T01:40:57.502Z,4.20
2022-10-18T01:43:30.634Z,4.90
2022-10-18T01:46:01.667Z,3.85
2022-10-18T01:48:30.721Z,4.80
2022-10-18T01:50:59.116Z,4.80
2022-10-18T01:53:30.921Z,5.00
2022-10-18T01:56:14.493Z,4.47
2022-10-18T01:58:49.699Z,4.55
2022-10-18T02:01:26.837Z,6.50
2022-10-18T02:03:58.023Z,5.13
2022-10-18T02:06:30.483Z,5.18
2022-10-18T02:09:05.235Z,4.72
2022-10-18T02:11:34.892Z,4.97
2022-10-18T02:14:08.258Z,5.95
2022-10-18T02:16:42.377Z,4.40
2022-10-18T02:19:14.190Z,3.60
2022-10-18T02:21:44.485Z,4.90
2022-10-18T02:24:13.982Z,4.72
2022-10-18T02:26:41.967Z,3.90
2022-10-18T02:29:10.489Z,3.63
2022-10-18T02:31:45.668Z,4.70
2022-10-18T02:34:20.707Z,5.50
2022-10-18T02:36:52.184Z,5.40
2022-10-18T02:39:24.458Z,3.95
2022-10-18T02:41:52.342Z,4.15
2022-10-18T02:44:20.023Z,3.87
2022-10-18T02:46:49.385Z,3.88
2022-10-18T02:49:17.140Z,3.60
2022-10-18T02:51:44.874Z,4.93
2022-10-18T02:54:12.559Z,4.33
2022-10-18T02:56:40.375Z,4.17
2022-10-18T02:59:08.215Z,3.20
2022-10-18T03:01:36.852Z,4.63
2022-10-18T03:04:06.652Z,4.75
2022-10-18T03:06:34.924Z,4.22
2022-10-18T03:09:03.433Z,4.37
2022-10-18T03:11:31.254Z,4.22
2022-10-18T03:13:59.540Z,4.28
2022-10-18T03:16:27.336Z,4.35
2022-10-18T03:18:55.094Z,4.72
2022-10-18T03:21:26.498Z,3.70
2022-10-18T03:23:56.595Z,3.65
2022-10-18T03:26:24.401Z,5.07
2022-10-18T03:28:52.329Z,3.63
2022-10-18T03:31:20.119Z,3.58
2022-10-18T03:33:47.881Z,3.17
2022-10-18T03:36:15.806Z,4.73
2022-10-18T03:38:44.852Z,4.07
2022-10-18T03:41:12.580Z,3.33
2022-10-18T03:43:40.344Z,4.10
2022-10-18T03:46:10.189Z,3.67
2022-10-18T03:48:37.883Z,3.35
2022-10-18T03:51:06.039Z,4.10
2022-10-18T03:53:33.719Z,3.13
2022-10-18T03:56:05.448Z,3.58
2022-10-18T04:00:26.842Z,4.20
2022-10-18T04:02:55.998Z,4.55
2022-10-18T04:05:26.871Z,3.55
2022-10-18T04:07:55.339Z,3.95
2022-10-18T04:10:23.308Z,4.50
2022-10-18T04:12:51.038Z,3.67
2022-10-18T04:15:18.990Z,4.28
2022-10-18T04:17:48.418Z,4.00
2022-10-18T04:20:16.344Z,4.45
2022-10-18T04:22:44.049Z,4.30
2022-10-18T04:25:14.041Z,4.57
2022-10-18T04:27:41.800Z,4.10
2022-10-18T04:30:10.410Z,4.73
2022-10-18T04:32:38.226Z,3.88
2022-10-18T04:35:08.220Z,3.70
2022-10-18T04:37:35.952Z,4.47
2022-10-18T04:40:04.110Z,4.68
2022-10-18T04:42:31.784Z,4.03
2022-10-18T04:45:01.635Z,4.85
2022-10-18T04:47:29.521Z,4.20
2022-10-18T04:49:57.622Z,4.30
2022-10-18T04:52:26.750Z,5.55
2022-10-18T04:54:54.555Z,4.75
2022-10-18T04:57:22.296Z,5.00
2022-10-18T04:59:49.979Z,4.93
2022-10-18T05:02:17.718Z,4.80
2022-10-18T05:04:45.429Z,4.80
2022-10-18T05:07:13.183Z,4.27
2022-10-18T05:09:42.414Z,4.63
2022-10-18T05:12:12.381Z,3.90
2022-10-18T05:14:40.127Z,3.10
2022-10-18T05:17:07.869Z,3.63
2022-10-18T05:19:35.598Z,3.87
2022-10-18T05:22:05.728Z,4.03
2022-10-18T05:24:33.523Z,4.55
2022-10-18T05:27:02.613Z,4.90
2022-10-18T05:29:30.332Z,4.28
2022-10-18T05:32:00.116Z,4.80
2022-10-18T05:34:31.832Z,3.47
2022-10-18T05:37:02.978Z,4.93
2022-10-18T05:39:30.855Z,4.27
2022-10-18T05:42:02.427Z,5.23
2022-10-18T05:44:30.148Z,5.37
2022-10-18T05:46:57.949Z,5.67
2022-10-18T05:49:25.689Z,5.00
2022-10-18T05:51:53.417Z,5.10
2022-10-18T05:54:21.227Z,5.10
2022-10-18T05:56:49.246Z,4.83
2022-10-18T05:59:18.337Z,3.33
2022-10-18T06:01:46.020Z,4.43
2022-10-18T06:04:13.802Z,5.00
2022-10-18T06:06:41.550Z,5.27
2022-10-18T06:09:09.484Z,4.60
2022-10-18T06:11:38.057Z,5.10
2022-10-18T06:14:06.024Z,5.07
2022-10-18T06:19:07.921Z,5.33
2022-10-18T06:21:35.647Z,3.87
2022-10-18T06:24:03.419Z,5.80
2022-10-18T06:26:31.235Z,4.40
2022-10-18T06:28:59.020Z,5.50
2022-10-18T06:31:26.804Z,5.93
2022-10-18T06:33:57.007Z,5.53
2022-10-18T06:36:25.081Z,4.53
2022-10-18T06:38:52.873Z,5.40
2022-10-18T06:41:21.951Z,4.43
2022-10-18T06:43:50.733Z,5.07
2022-10-18T06:46:18.456Z,4.37
2022-10-18T06:48:47.304Z,5.23
2022-10-18T06:51:16.431Z,4.97
2022-10-18T06:53:53.449Z,4.80
2022-10-18T06:56:32.004Z,4.83
2022-10-18T06:58:59.898Z,4.43
2022-10-18T07:01:28.452Z,5.43
2022-10-18T07:03:56.865Z,3.60
2022-10-18T07:06:26.028Z,4.87
2022-10-18T07:08:54.145Z,3.63
2022-10-18T07:11:25.121Z,6.77
2022-10-18T07:13:54.014Z,4.10
2022-10-18T07:16:22.164Z,4.90
2022-10-18T07:18:51.707Z,4.17
2022-10-18T07:21:21.596Z,4.10
2022-10-18T07:23:53.714Z,3.53
2022-10-18T07:26:23.550Z,4.70
2022-10-18T07:28:54.530Z,4.10
2022-10-18T07:31:23.598Z,6.78
2022-10-18T07:33:51.691Z,5.70
2022-10-18T07:36:21.095Z,5.40
2022-10-18T07:38:51.840Z,3.75
2022-10-18T07:41:19.836Z,4.63
2022-10-18T07:43:50.720Z,3.97
2022-10-18T07:46:19.533Z,3.90
2022-10-18T07:48:47.597Z,4.03
2022-10-18T07:51:15.726Z,3.95
2022-10-18T07:53:43.668Z,4.78
2022-10-18T07:56:16.800Z,3.75
2022-10-18T07:58:45.439Z,5.13
2022-10-18T08:01:14.210Z,4.70
2022-10-18T08:03:42.786Z,5.03
2022-10-18T08:06:12.591Z,4.53
2022-10-18T08:08:41.561Z,4.85
2022-10-18T08:11:12.714Z,4.45
2022-10-18T08:13:40.496Z,4.15
2022-10-18T08:16:10.137Z,5.68
2022-10-18T08:18:38.537Z,4.82
2022-10-18T08:21:08.387Z,4.15
2022-10-18T08:23:36.543Z,4.82
2022-10-18T08:26:05.743Z,3.72
2022-10-18T08:28:36.675Z,4.88
2022-10-18T08:31:05.349Z,4.88
2022-10-18T08:33:33.913Z,4.80
2022-10-18T08:36:05.679Z,5.30
2022-10-18T08:38:34.400Z,4.57
2022-10-18T08:41:15.595Z,4.45
2022-10-18T08:43:54.085Z,3.42
2022-10-18T08:46:22.165Z,3.83
2022-10-18T08:48:54.991Z,3.00
2022-10-18T08:51:30.234Z,3.75
2022-10-18T08:54:05.035Z,3.50
2022-10-18T08:56:34.511Z,3.03
2022-10-18T08:59:05.132Z,2.88
2022-10-18T09:01:43.023Z,3.20
2022-10-18T09:04:23.993Z,2.63
2022-10-18T09:07:05.547Z,3.60
2022-10-18T09:09:40.824Z,3.45
2022-10-18T09:12:27.909Z,4.00
2022-10-18T09:15:21.322Z,3.88
2022-10-18T09:18:04.721Z,3.58
2022-10-18T09:20:41.497Z,3.88
2022-10-18T09:23:20.030Z,3.72
2022-10-18T09:25:49.947Z,3.78
2022-10-18T09:28:33.339Z,3.55
2022-10-18T09:31:08.180Z,3.72
2022-10-18T09:33:46.946Z,3.63
2022-10-18T09:36:20.245Z,3.55
2022-10-18T09:38:50.548Z,3.10
2022-10-18T09:41:24.294Z,3.38
2022-10-18T09:43:57.323Z,3.65
2022-10-18T09:46:30.167Z,3.30
2022-10-18T09:49:02.115Z,4.47
2022-10-18T09:51:35.083Z,3.53
2022-10-18T09:54:20.062Z,4.13
2022-10-18T09:56:50.914Z,3.20
2022-10-18T09:59:36.840Z,3.08
2022-10-18T10:02:07.284Z,3.60
2022-10-18T10:04:35.199Z,2.85
2022-10-18T10:07:10.248Z,3.05
2022-10-18T10:09:45.302Z,3.38
2022-10-18T10:12:28.621Z,3.00
2022-10-18T10:15:07.347Z,3.10
2022-10-18T10:17:38.887Z,3.60
2022-10-18T10:20:19.708Z,4.00
2022-10-18T10:22:49.082Z,3.92
2022-10-18T10:25:24.043Z,3.80
2022-10-18T10:27:52.118Z,4.10
2022-10-18T10:30:25.058Z,3.40
2022-10-18T10:32:57.964Z,3.60
2022-10-18T10:38:24.982Z,3.50
2022-10-18T10:40:53.611Z,2.80
2022-10-18T10:43:36.938Z,3.08
2022-10-18T10:46:09.691Z,2.95
2022-10-18T10:48:48.182Z,2.70
2022-10-18T10:51:18.453Z,2.70
2022-10-18T10:53:52.392Z,2.80
2022-10-18T10:56:26.633Z,2.85
2022-10-18T10:58:56.716Z,2.85
2022-10-18T11:01:30.312Z,2.78
2022-10-18T11:04:04.494Z,3.10
2022-10-18T11:06:57.811Z,3.03
2022-10-18T11:09:38.255Z,2.67
2022-10-18T11:12:23.716Z,3.63
2022-10-18T11:14:57.403Z,3.00
2022-10-18T11:17:33.140Z,3.10
2022-10-18T11:20:14.726Z,2.55
2022-10-18T11:22:50.970Z,2.47
2022-10-18T11:25:24.051Z,3.00
2022-10-18T11:28:00.318Z,2.88
2022-10-18T11:30:42.051Z,2.85
2022-10-18T11:33:29.526Z,3.10
2022-10-18T11:36:17.048Z,2.72
2022-10-18T11:38:54.506Z,2.97
2022-10-18T11:41:32.231Z,2.72
2022-10-18T11:44:03.712Z,3.08
2022-10-18T11:46:50.223Z,2.70
2022-10-18T11:49:37.295Z,2.95
2022-10-18T11:52:14.332Z,2.60
2022-10-18T11:54:57.513Z,2.22
2022-10-18T11:57:41.365Z,1.83
2022-10-18T12:00:20.134Z,2.97
2022-10-18T12:03:29.114Z,2.50
2022-10-18T12:06:02.803Z,3.28
2022-10-18T12:08:37.165Z,2.53
2022-10-18T12:11:13.593Z,2.65
2022-10-18T12:13:47.914Z,3.55
2022-10-18T12:16:17.414Z,2.80
2022-10-18T12:21:29.380Z,2.65
2022-10-18T12:24:03.322Z,2.70
2022-10-18T12:26:33.793Z,2.22
2022-10-18T12:29:17.012Z,2.35
2022-10-18T12:31:49.023Z,2.90
2022-10-18T12:34:27.717Z,3.72
2022-10-18T12:37:15.483Z,3.03
2022-10-18T12:40:09.034Z,2.90
2022-10-18T12:42:42.483Z,2.83
2022-10-18T12:45:24.804Z,2.88
2022-10-18T12:47:53.105Z,2.80
2022-10-18T12:50:31.928Z,2.90
2022-10-18T12:53:19.862Z,3.00
2022-10-18T12:55:51.317Z,2.85
2022-10-18T12:58:31.398Z,3.78
2022-10-18T13:01:04.601Z,2.50
2022-10-18T13:03:50.856Z,2.50
2022-10-18T13:06:21.580Z,2.42
2022-10-18T13:09:20.193Z,2.03
2022-10-18T13:11:49.729Z,2.45
2022-10-18T13:14:48.186Z,2.30
2022-10-18T13:17:35.380Z,2.20
2022-10-18T13:20:27.722Z,2.20
2022-10-18T13:23:09.021Z,2.40
2022-10-18T13:25:51.510Z,2.33
2022-10-18T13:28:29.085Z,1.60
2022-10-18T13:31:02.045Z,1.92
2022-10-18T13:33:34.482Z,2.25
2022-10-18T13:36:05.172Z,2.25
2022-10-18T13:38:50.358Z,2.28
2022-10-18T13:41:20.459Z,2.50
2022-10-18T13:43:57.981Z,2.55
2022-10-18T13:46:46.216Z,2.38
2022-10-18T13:49:30.737Z,2.30
2022-10-18T13:52:08.464Z,2.78
2022-10-18T13:54:59.971Z,2.47
2022-10-18T13:57:47.875Z,2.92
2022-10-18T14:00:31.336Z,2.22
2022-10-18T14:03:55.771Z,2.67
2022-10-18T14:06:24.892Z,2.65
2022-10-18T14:08:58.741Z,2.40
2022-10-18T14:11:35.033Z,3.08
2022-10-18T14:14:13.012Z,2.78
2022-10-18T14:16:47.610Z,2.90
2022-10-18T14:19:22.670Z,2.70
2022-10-18T14:21:56.082Z,2.78
2022-10-18T14:24:26.442Z,2.42
2022-10-18T14:27:12.744Z,2.35
2022-10-18T14:29:41.150Z,2.17
2022-10-18T14:32:10.674Z,2.33
2022-10-18T14:34:38.833Z,2.15
2022-10-18T14:37:07.929Z,2.60
2022-10-18T14:39:39.825Z,2.40
2022-10-18T14:42:21.376Z,2.40
2022-10-18T14:44:54.431Z,2.85
2022-10-18T14:47:25.534Z,2.25
2022-10-18T14:49:54.646Z,2.65
2022-10-18T14:52:30.463Z,2.20
2022-10-18T14:55:01.713Z,2.58
2022-10-18T14:57:32.885Z,2.53
2022-10-18T15:00:03.442Z,2.45
2022-10-18T15:02:37.920Z,2.70
2022-10-18T15:05:09.099Z,2.45
2022-10-18T15:07:38.596Z,2.80
2022-10-18T15:10:07.715Z,2.40
2022-10-18T15:12:45.637Z,2.40
2022-10-18T15:15:28.679Z,2.38
2022-10-18T15:17:56.929Z,2.38
2022-10-18T15:20:27.244Z,2.22
2022-10-18T15:23:21.897Z,3.08
2022-10-18T15:25:50.364Z,2.53
2022-10-18T15:28:29.089Z,2.70
2022-10-18T15:30:58.694Z,2.70
2022-10-18T15:33:27.861Z,2.63
2022-10-18T15:35:55.835Z,3.10
2022-10-18T15:38:29.254Z,2.75
2022-10-18T15:40:57.011Z,3.33
2022-10-18T15:43:36.694Z,3.45
2022-10-18T15:46:06.966Z,2.97
2022-10-18T15:48:38.339Z,4.28
2022-10-18T15:51:07.664Z,2.97
2022-10-18T15:53:54.937Z,3.00
2022-10-18T15:56:32.684Z,3.35
2022-10-18T15:59:03.931Z,2.72
2022-10-18T16:01:38.252Z,2.70
2022-10-18T16:04:12.200Z,3.15
2022-10-18T16:06:40.007Z,3.22
2022-10-18T16:09:14.037Z,5.03
2022-10-18T16:11:41.751Z,4.10
2022-10-18T16:14:09.695Z,4.40
2022-10-18T16:16:41.033Z,5.15
2022-10-18T16:19:11.070Z,3.95
2022-10-18T16:21:39.963Z,3.08
2022-10-18T16:24:11.244Z,3.03
2022-10-18T16:26:39.704Z,2.42
2022-10-18T16:29:07.834Z,2.72
2022-10-18T16:31:35.703Z,2.70
2022-10-18T16:34:04.108Z,3.35
2022-10-18T16:36:34.136Z,3.88
2022-10-18T16:39:04.507Z,2.97
2022-10-18T16:41:33.598Z,3.22
2022-10-18T16:44:01.307Z,3.40
2022-10-18T16:46:31.300Z,3.15
2022-10-18T16:48:59.096Z,3.72
2022-10-18T16:51:27.334Z,3.08
2022-10-18T16:53:55.294Z,3.28
2022-10-18T16:56:25.906Z,2.88
2022-10-18T16:58:55.346Z,3.03
2022-10-18T17:01:24.974Z,3.58
2022-10-18T17:03:53.381Z,3.60
2022-10-18T17:06:24.249Z,3.72
2022-10-18T17:08:53.310Z,4.05
2022-10-18T17:11:23.034Z,3.00
2022-10-18T17:13:50.927Z,3.40
2022-10-18T17:19:01.601Z,3.80
2022-10-18T17:21:31.392Z,2.92
2022-10-18T17:24:00.484Z,3.13
2022-10-18T17:26:29.692Z,4.25
2022-10-18T17:29:00.403Z,3.78
2022-10-18T17:31:30.694Z,4.30
2022-10-18T17:34:21.193Z,4.10
2022-10-18T17:36:51.704Z,4.53
2022-10-18T17:39:19.674Z,4.53
2022-10-18T17:41:47.365Z,3.80
2022-10-18T17:44:15.059Z,4.72
2022-10-18T17:46:43.091Z,4.10
2022-10-18T17:49:10.828Z,3.67
2022-10-18T17:51:41.072Z,5.03
2022-10-18T17:54:08.924Z,4.70
2022-10-18T17:56:36.730Z,4.28
2022-10-18T17:59:06.974Z,3.92
2022-10-18T18:01:35.079Z,5.15
2022-10-18T18:04:04.177Z,4.22
2022-10-18T18:06:34.016Z,3.95
2022-10-18T18:09:08.018Z,4.28
2022-10-18T18:11:36.515Z,4.45
2022-10-18T18:14:08.843Z,3.88
2022-10-18T18:16:37.677Z,3.08
2022-10-18T18:19:09.676Z,3.15
2022-10-18T18:21:38.919Z,2.95
2022-10-18T18:24:09.963Z,4.38
2022-10-18T18:26:39.528Z,5.00
2022-10-18T18:29:07.729Z,5.00
2022-10-18T18:31:40.063Z,4.15
2022-10-18T18:34:10.515Z,3.85
2022-10-18T18:36:38.297Z,4.53
2022-10-18T18:39:08.891Z,4.07
2022-10-18T18:41:38.320Z,4.68
2022-10-18T18:44:07.269Z,4.22
2022-10-18T18:46:38.560Z,5.03
2022-10-18T18:49:07.170Z,5.45
2022-10-18T18:51:37.369Z,5.63
2022-10-18T18:54:05.588Z,4.95
2022-10-18T18:56:34.761Z,3.95
2022-10-18T18:59:02.556Z,4.80
2022-10-18T19:01:32.669Z,4.95
2022-10-18T19:04:01.583Z,3.88
2022-10-18T19:06:31.465Z,3.70
2022-10-18T19:09:03.963Z,4.07
2022-10-18T19:11:35.521Z,4.53
2022-10-18T19:14:04.075Z,3.95
2022-10-18T19:16:32.930Z,5.25
2022-10-18T19:19:02.484Z,5.35
2022-10-18T19:21:32.784Z,4.72
2022-10-18T19:24:03.430Z,4.45
2022-10-18T19:26:36.594Z,4.72
2022-10-18T19:29:08.704Z,3.40
2022-10-18T19:31:36.571Z,4.50
2022-10-18T19:34:05.373Z,4.20
2022-10-18T19:36:33.509Z,4.65
2022-10-18T19:39:01.940Z,4.05
2022-10-18T19:41:29.708Z,4.68
2022-10-18T19:43:58.889Z,4.78
2022-10-18T19:46:27.183Z,6.00
2022-10-18T19:48:54.997Z,4.63
2022-10-18T19:51:27.028Z,4.97
2022-10-18T19:53:57.219Z,5.10
2022-10-18T19:56:28.646Z,6.18
2022-10-18T19:59:00.534Z,5.65
2022-10-18T20:01:29.541Z,4.88
2022-10-18T20:03:57.567Z,5.65
2022-10-18T20:06:25.464Z,5.15
2022-10-18T20:08:53.613Z,5.25
2022-10-18T20:11:26.470Z,6.13
2022-10-18T20:13:54.233Z,6.30
2022-10-18T20:16:28.642Z,5.50
2022-10-18T20:19:00.490Z,6.45
2022-10-18T20:21:29.869Z,7.60
2022-10-18T20:23:57.897Z,5.68
2022-10-18T20:26:26.058Z,5.38
2022-10-18T20:28:57.589Z,4.63
2022-10-18T20:31:28.700Z,4.68
2022-10-18T20:33:58.137Z,4.97
2022-10-18T20:36:26.771Z,4.80
2022-10-18T20:38:55.151Z,4.50
2022-10-18T20:41:25.771Z,4.07
2022-10-18T20:43:54.594Z,4.20
2022-10-18T20:46:23.291Z,6.00
2022-10-18T20:48:53.448Z,4.47
2022-10-18T20:51:22.291Z,6.40
2022-10-18T20:53:50.440Z,6.25
2022-10-18T20:56:20.602Z,5.25
2022-10-18T20:58:52.414Z,4.10
2022-10-18T21:01:22.495Z,5.05
2022-10-18T21:03:53.399Z,3.97
2022-10-18T21:06:23.145Z,3.97
2022-10-18T21:08:54.498Z,4.80
2022-10-18T21:11:22.323Z,4.68
2022-10-18T21:13:53.114Z,4.38
2022-10-18T21:16:20.899Z,4.10
2022-10-18T21:18:49.236Z,4.78
2022-10-18T21:21:20.105Z,6.22
2022-10-18T21:23:48.419Z,5.97
2022-10-18T21:26:18.352Z,3.92
2022-10-18T21:28:46.656Z,5.85
2022-10-18T21:31:17.945Z,4.20
2022-10-18T21:33:46.957Z,4.78
2022-10-18T21:36:15.800Z,4.97
2022-10-18T21:38:46.622Z,5.90
2022-10-18T21:41:15.558Z,5.72
2022-10-18T21:43:45.360Z,4.55
2022-10-18T21:46:14.755Z,4.03
2022-10-18T21:48:44.475Z,4.78
2022-10-18T21:51:17.562Z,5.22
2022-10-18T21:53:48.560Z,6.07
2022-10-18T21:56:18.321Z,5.75
2022-10-18T21:58:46.659Z,6.88
2022-10-18T22:01:16.248Z,4.95
2022-10-18T22:03:45.472Z,5.15
2022-10-18T22:06:15.236Z,4.10
2022-10-18T22:08:44.057Z,3.90
2022-10-18T22:11:14.579Z,5.47
2022-10-18T22:13:45.140Z,5.25
2022-10-18T22:16:15.554Z,4.03
2022-10-18T22:18:47.452Z,4.05
2022-10-18T22:21:17.370Z,3.97
2022-10-18T22:23:47.096Z,3.33
2022-10-18T22:26:18.550Z,5.72
2022-10-18T22:28:47.578Z,4.53
2022-10-18T22:31:17.057Z,5.55
2022-10-18T22:33:45.965Z,4.43
2022-10-18T22:36:14.464Z,3.88
2022-10-18T22:38:42.409Z,3.92
2022-10-18T22:41:12.337Z,5.70
2022-10-18T22:43:41.487Z,3.67
2022-10-18T22:46:13.083Z,3.83
2022-10-18T22:48:41.559Z,5.10
2022-10-18T22:51:10.236Z,4.93
2022-10-18T22:53:38.958Z,4.45
2022-10-18T22:56:08.229Z,4.20
2022-10-18T22:58:36.073Z,6.43
2022-10-18T23:01:09.563Z,6.88
2022-10-18T23:03:38.277Z,7.43
2022-10-18T23:06:15.830Z,4.78
2022-10-18T23:08:43.579Z,4.15
2022-10-18T23:11:11.345Z,6.03
2022-10-18T23:13:39.698Z,7.07
2022-10-18T23:16:09.221Z,6.00
2022-10-18T23:18:37.502Z,6.20
2022-10-18T23:21:07.093Z,5.10
2022-10-18T23:23:36.431Z,7.03
2022-10-18T23:26:08.364Z,6.90
2022-10-18T23:28:37.521Z,6.80
2022-10-18T23:31:12.268Z,6.88
2022-10-18T23:33:42.585Z,5.22
2022-10-18T23:36:10.655Z,5.70
2022-10-18T23:38:39.475Z,4.63
2022-10-18T23:41:08.881Z,4.90
2022-10-18T23:43:36.864Z,4.90
2022-10-18T23:46:07.580Z,4.10
2022-10-18T23:48:37.294Z,4.10
2022-10-18T23:51:05.604Z,4.63
2022-10-18T23:53:33.987Z,3.90
2022-10-18T23:56:04.162Z,4.00
2022-10-18T23:58:33.505Z,3.97
